Time;durP1;ratioP1;P1;durP2;ratioP2;P2;SDS_P1;SDS_P2;PMS_P1;PMS_P2;Temp;Humidity;BMP_temperature;BMP_pressure;BME280_temperature;BME280_humidity;BME280_pressure;Samples;Min_cycle;Max_cycle;Signal;HPM_P1;HPM_P2
2021/09/05 00:00:46;;;;;;;55.30;35.97;;;17.90;75.10;;;;;;5031004;28;20045;-91
2021/09/05 00:03:13;;;;;;;63.20;38.40;;;17.90;75.00;;;;;;5029464;28;20475;-93
2021/09/05 00:05:40;;;;;;;58.08;38.33;;;17.90;75.00;;;;;;4996532;28;20057;-91
2021/09/05 00:08:07;;;;;;;59.58;39.00;;;17.90;75.00;;;;;;5013517;28;20065;-92
2021/09/05 00:10:34;;;;;;;56.50;35.08;;;17.90;75.00;;;;;;5008749;28;20041;-92
2021/09/05 00:13:01;;;;;;;59.35;36.75;;;17.90;75.00;;;;;;5006067;28;20066;-93
2021/09/05 00:15:28;;;;;;;59.30;37.22;;;17.90;75.00;;;;;;5014853;28;20046;-93
2021/09/05 00:17:55;;;;;;;58.42;37.80;;;17.80;75.10;;;;;;5032784;28;20188;-91
2021/09/05 00:20:21;;;;;;;53.38;36.60;;;17.90;75.00;;;;;;4998266;28;20100;-92
2021/09/05 00:22:48;;;;;;;60.40;38.13;;;17.80;75.00;;;;;;5016400;28;20053;-92
2021/09/05 00:25:16;;;;;;;55.53;36.45;;;17.80;75.00;;;;;;5007822;28;20084;-93
2021/09/05 00:27:43;;;;;;;59.70;36.45;;;17.80;75.20;;;;;;5000185;28;20049;-91
2021/09/05 00:30:10;;;;;;;59.55;39.40;;;17.80;75.30;;;;;;5002033;28;20065;-92
2021/09/05 00:32:37;;;;;;;50.13;34.03;;;17.80;75.30;;;;;;5019429;28;20069;-93
2021/09/05 00:35:05;;;;;;;56.95;35.78;;;17.70;75.30;;;;;;5019731;28;20132;-91
2021/09/05 00:37:33;;;;;;;48.05;34.13;;;17.70;75.20;;;;;;5017916;28;20049;-91
2021/09/05 00:40:00;;;;;;;52.05;34.30;;;17.70;75.30;;;;;;5010784;28;20058;-91
2021/09/05 00:42:28;;;;;;;53.13;35.30;;;17.60;75.30;;;;;;5013136;28;20050;-92
2021/09/05 00:44:55;;;;;;;55.00;35.40;;;17.60;75.40;;;;;;5000192;28;20060;-91
2021/09/05 00:47:22;;;;;;;48.38;31.70;;;17.60;75.40;;;;;;5036429;28;20057;-92
2021/09/05 00:49:49;;;;;;;49.25;33.95;;;17.60;75.30;;;;;;5016614;28;20076;-91
2021/09/05 00:52:18;;;;;;;48.97;32.35;;;17.60;75.30;;;;;;5007069;28;20057;-91
2021/09/05 00:54:46;;;;;;;55.08;35.08;;;17.60;75.40;;;;;;4999522;28;20058;-91
2021/09/05 00:57:15;;;;;;;52.67;36.33;;;17.50;75.40;;;;;;5019919;28;20050;-93
2021/09/05 00:59:45;;;;;;;53.92;33.60;;;17.50;75.40;;;;;;5019180;28;20053;-91
2021/09/05 01:02:12;;;;;;;67.47;41.33;;;17.50;75.50;;;;;;4999320;28;20061;-91
2021/09/05 01:04:39;;;;;;;59.92;38.00;;;17.40;75.50;;;;;;5010044;28;20550;-90
2021/09/05 01:07:06;;;;;;;50.22;34.45;;;17.40;75.70;;;;;;5018459;28;20450;-92
2021/09/05 01:09:34;;;;;;;50.75;34.65;;;17.40;75.80;;;;;;5012799;28;20054;-91
2021/09/05 01:12:02;;;;;;;53.67;36.72;;;17.40;75.90;;;;;;5000857;28;20046;-91
2021/09/05 01:14:29;;;;;;;51.50;35.05;;;17.40;75.80;;;;;;5018395;28;20057;-91
2021/09/05 01:16:56;;;;;;;59.97;37.13;;;17.40;75.90;;;;;;5000617;28;20057;-90
2021/09/05 01:19:23;;;;;;;60.13;37.30;;;17.40;75.90;;;;;;5011561;28;20056;-92
2021/09/05 01:21:52;;;;;;;57.35;36.30;;;17.40;75.90;;;;;;5012575;28;20057;-91
2021/09/05 01:24:23;;;;;;;49.05;32.40;;;17.40;75.80;;;;;;5002923;28;20112;-91
2021/09/05 01:26:52;;;;;;;58.83;38.08;;;17.40;75.80;;;;;;5018636;28;20057;-92
2021/09/05 01:29:20;;;;;;;50.80;34.83;;;17.30;75.80;;;;;;5015783;28;20053;-92
2021/09/05 01:31:49;;;;;;;56.72;36.55;;;17.30;75.90;;;;;;5015355;28;20062;-92
2021/09/05 01:34:19;;;;;;;50.88;36.00;;;17.30;76.00;;;;;;4998687;28;20054;-90
2021/09/05 01:36:47;;;;;;;51.78;33.50;;;17.30;76.10;;;;;;5006048;28;20049;-91
2021/09/05 01:39:16;;;;;;;49.50;32.95;;;17.30;76.20;;;;;;5018224;28;20057;-90
2021/09/05 01:41:44;;;;;;;52.25;34.75;;;17.20;76.20;;;;;;5018019;28;20049;-91
2021/09/05 01:44:15;;;;;;;57.63;35.58;;;17.20;76.10;;;;;;5017201;28;20069;-91
2021/09/05 01:46:42;;;;;;;57.08;32.80;;;17.20;76.20;;;;;;5017538;28;20060;-91
2021/09/05 01:49:09;;;;;;;57.20;36.05;;;17.10;76.10;;;;;;5017412;28;20099;-91
2021/09/05 01:51:36;;;;;;;52.92;35.15;;;17.10;76.10;;;;;;5017980;28;20054;-91
2021/09/05 01:54:03;;;;;;;56.67;36.80;;;17.10;76.10;;;;;;5017806;28;20049;-91
2021/09/05 01:56:31;;;;;;;50.33;33.97;;;17.10;76.10;;;;;;5017301;28;20064;-90
2021/09/05 01:58:59;;;;;;;54.28;35.60;;;17.00;76.30;;;;;;5017382;28;20068;-91
2021/09/05 02:01:28;;;;;;;57.85;38.10;;;17.00;76.30;;;;;;5005691;28;20061;-91
2021/09/05 02:03:56;;;;;;;52.47;33.13;;;17.00;76.30;;;;;;5005950;28;20079;-91
2021/09/05 02:06:23;;;;;;;47.20;34.20;;;17.00;76.40;;;;;;5012880;28;20049;-90
2021/09/05 02:08:50;;;;;;;52.60;35.47;;;17.00;76.50;;;;;;5017125;28;20466;-90
2021/09/05 02:11:17;;;;;;;48.80;33.55;;;16.90;76.60;;;;;;5016762;28;20057;-89
2021/09/05 02:13:44;;;;;;;51.00;32.75;;;17.00;76.60;;;;;;5016143;28;20507;-90
2021/09/05 02:16:13;;;;;;;59.95;34.67;;;16.90;76.50;;;;;;5023177;28;20116;-90
2021/09/05 02:18:40;;;;;;;55.38;35.72;;;16.90;76.50;;;;;;5005360;28;20508;-90
2021/09/05 02:21:07;;;;;;;57.22;35.47;;;16.90;76.50;;;;;;5034027;28;20508;-90
2021/09/05 02:23:34;;;;;;;52.55;33.30;;;16.90;76.50;;;;;;5016626;28;20049;-90
2021/09/05 02:26:00;;;;;;;59.92;34.17;;;16.90;76.50;;;;;;5016545;28;20557;-90
2021/09/05 02:28:27;;;;;;;51.28;33.20;;;16.90;76.50;;;;;;5034410;28;20053;-89
2021/09/05 02:30:54;;;;;;;52.80;35.95;;;16.80;76.30;;;;;;5007331;28;20046;-88
2021/09/05 02:33:21;;;;;;;55.42;35.75;;;16.90;76.30;;;;;;4997302;28;20546;-89
2021/09/05 02:35:48;;;;;;;58.92;37.33;;;16.80;76.40;;;;;;5016781;28;20065;-90
2021/09/05 02:38:15;;;;;;;53.70;36.13;;;16.80;76.40;;;;;;5015662;28;20057;-89
2021/09/05 02:40:42;;;;;;;67.50;40.22;;;16.80;76.50;;;;;;5014838;28;20091;-90
2021/09/05 02:43:09;;;;;;;56.10;35.08;;;16.80;76.60;;;;;;5032706;28;20049;-91
2021/09/05 02:45:36;;;;;;;54.70;33.75;;;16.70;76.60;;;;;;5015509;28;20045;-91
2021/09/05 02:48:04;;;;;;;56.47;36.67;;;16.70;76.60;;;;;;5033824;28;20136;-91
2021/09/05 02:50:31;;;;;;;54.33;35.83;;;16.70;76.70;;;;;;5016550;28;20474;-90
2021/09/05 02:52:58;;;;;;;47.10;32.22;;;16.70;76.80;;;;;;5016827;28;20467;-90
2021/09/05 02:55:25;;;;;;;48.53;33.10;;;16.70;76.90;;;;;;5016333;28;20049;-92
2021/09/05 02:57:52;;;;;;;47.95;31.08;;;16.70;76.90;;;;;;5016080;28;20092;-90
2021/09/05 03:00:19;;;;;;;47.17;30.05;;;16.70;76.80;;;;;;5015028;28;20049;-90
2021/09/05 03:02:46;;;;;;;46.53;29.48;;;16.70;76.80;;;;;;5033874;28;20053;-89
2021/09/05 03:05:13;;;;;;;48.05;29.23;;;16.60;76.80;;;;;;5016101;28;20059;-90
2021/09/05 03:07:40;;;;;;;42.20;26.88;;;16.60;76.70;;;;;;5016516;28;20053;-91
2021/09/05 03:10:07;;;;;;;51.95;29.95;;;16.60;76.60;;;;;;5015596;28;20045;-90
2021/09/05 03:12:34;;;;;;;42.67;28.85;;;16.60;76.50;;;;;;5015853;28;20454;-89
2021/09/05 03:15:01;;;;;;;46.22;32.00;;;16.60;76.40;;;;;;5016271;28;20057;-90
2021/09/05 03:17:30;;;;;;;47.60;31.70;;;16.50;76.40;;;;;;5015947;28;20053;-89
2021/09/05 03:19:57;;;;;;;56.75;35.40;;;16.50;76.40;;;;;;5016252;28;20470;-89
2021/09/05 03:22:24;;;;;;;54.28;34.80;;;16.50;76.50;;;;;;5016015;28;20049;-90
2021/09/05 03:24:51;;;;;;;57.33;35.95;;;16.50;76.70;;;;;;5015751;28;20053;-90
2021/09/05 03:27:18;;;;;;;46.90;30.73;;;16.40;76.90;;;;;;5011961;28;20052;-90
2021/09/05 03:29:44;;;;;;;49.13;32.17;;;16.40;76.90;;;;;;4996343;28;20066;-90
2021/09/05 03:32:11;;;;;;;53.80;35.70;;;16.40;77.00;;;;;;4996422;28;20053;-90
2021/09/05 03:34:38;;;;;;;52.92;33.40;;;16.40;77.00;;;;;;5015355;28;20115;-90
2021/09/05 03:37:05;;;;;;;50.22;32.60;;;16.40;77.10;;;;;;5006615;28;20084;-91
2021/09/05 03:39:32;;;;;;;55.92;34.63;;;16.40;77.00;;;;;;5015168;28;20504;-90
2021/09/05 03:41:59;;;;;;;57.85;34.65;;;16.30;77.00;;;;;;5014099;28;20053;-90
2021/09/05 03:44:26;;;;;;;56.22;33.25;;;16.30;77.00;;;;;;5015099;28;20053;-90
2021/09/05 03:46:53;;;;;;;52.90;33.90;;;16.30;77.10;;;;;;5033051;28;20047;-90
2021/09/05 03:49:20;;;;;;;51.67;33.53;;;16.30;77.10;;;;;;5007124;28;20053;-91
2021/09/05 03:51:47;;;;;;;60.28;36.17;;;16.30;77.20;;;;;;5015368;28;20119;-91
2021/09/05 03:54:14;;;;;;;47.92;31.55;;;16.30;77.40;;;;;;5015387;28;20430;-91
2021/09/05 03:56:41;;;;;;;59.53;34.85;;;16.30;77.40;;;;;;5039624;28;20046;-90
2021/09/05 03:59:08;;;;;;;64.15;36.53;;;16.30;77.40;;;;;;5017157;28;20057;-90
2021/09/05 04:01:35;;;;;;;58.85;36.00;;;16.30;77.40;;;;;;5008131;28;20053;-88
2021/09/05 04:04:02;;;;;;;55.33;34.95;;;16.20;77.50;;;;;;5027831;28;20064;-91
2021/09/05 04:06:29;;;;;;;55.50;34.08;;;16.20;77.60;;;;;;5016422;28;20050;-90
2021/09/05 04:08:57;;;;;;;62.30;35.42;;;16.20;77.70;;;;;;5019074;28;20050;-90
2021/09/05 04:11:24;;;;;;;59.30;35.17;;;16.10;77.70;;;;;;5002379;28;20061;-90
2021/09/05 04:13:51;;;;;;;53.00;32.00;;;16.20;77.80;;;;;;5017394;28;20446;-92
2021/09/05 04:16:18;;;;;;;45.03;30.55;;;16.10;77.80;;;;;;5031659;28;20045;-91
2021/09/05 04:18:45;;;;;;;46.95;31.48;;;16.10;77.80;;;;;;5038908;28;20053;-90
2021/09/05 04:21:12;;;;;;;49.33;31.00;;;16.10;77.80;;;;;;5020793;28;20107;-92
2021/09/05 04:23:38;;;;;;;52.67;33.47;;;16.10;77.80;;;;;;5039283;28;20057;-90
2021/09/05 04:26:05;;;;;;;44.92;29.80;;;16.10;77.90;;;;;;5014958;28;20507;-90
2021/09/05 04:28:32;;;;;;;44.92;30.65;;;16.10;77.90;;;;;;5037872;28;20417;-91
2021/09/05 04:30:59;;;;;;;45.70;29.35;;;16.10;77.70;;;;;;5037866;28;20056;-91
2021/09/05 04:33:26;;;;;;;41.25;25.48;;;16.10;77.70;;;;;;5017535;28;20554;-90
2021/09/05 04:35:53;;;;;;;50.28;30.38;;;16.10;77.70;;;;;;5018055;28;20099;-91
2021/09/05 04:38:20;;;;;;;56.08;34.67;;;16.00;77.70;;;;;;5018446;28;20111;-91
2021/09/05 04:40:47;;;;;;;45.90;29.70;;;16.10;77.90;;;;;;5039161;28;20049;-91
2021/09/05 04:43:14;;;;;;;51.03;31.65;;;16.00;78.00;;;;;;5029941;28;20049;-91
2021/09/05 04:45:41;;;;;;;49.80;31.30;;;16.00;78.10;;;;;;5036749;28;20045;-91
2021/09/05 04:48:08;;;;;;;53.22;32.03;;;16.10;78.10;;;;;;5035965;28;20121;-90
2021/09/05 04:50:34;;;;;;;47.25;30.92;;;16.00;78.00;;;;;;5037584;28;20111;-90
2021/09/05 04:53:01;;;;;;;44.70;28.75;;;16.00;78.00;;;;;;5021036;28;20388;-90
2021/09/05 04:55:28;;;;;;;40.85;25.95;;;16.00;77.90;;;;;;5039452;28;20050;-91
2021/09/05 04:57:55;;;;;;;49.08;30.75;;;16.00;77.90;;;;;;5013056;28;20054;-91
2021/09/05 05:00:22;;;;;;;41.28;27.77;;;16.00;77.90;;;;;;5003030;28;20120;-91
2021/09/05 05:02:49;;;;;;;42.58;28.63;;;16.00;77.90;;;;;;5018084;28;20118;-90
2021/09/05 05:05:16;;;;;;;45.75;30.05;;;16.00;78.00;;;;;;5018736;28;20141;-90
2021/09/05 05:07:43;;;;;;;51.50;31.08;;;15.90;78.00;;;;;;5028387;28;20053;-92
2021/09/05 05:10:10;;;;;;;44.75;29.15;;;15.90;77.90;;;;;;5010077;28;20512;-92
2021/09/05 05:12:37;;;;;;;45.28;28.05;;;15.90;77.80;;;;;;5016926;28;20124;-91
2021/09/05 05:15:04;;;;;;;42.70;27.42;;;16.00;77.70;;;;;;5034461;28;20061;-92
2021/09/05 05:17:33;;;;;;;45.65;27.45;;;15.90;77.60;;;;;;4998976;28;20412;-89
2021/09/05 05:20:00;;;;;;;38.65;24.98;;;15.90;77.60;;;;;;5016317;28;20065;-90
2021/09/05 05:22:27;;;;;;;45.90;29.85;;;15.90;77.50;;;;;;5003840;28;20045;-90
2021/09/05 05:24:54;;;;;;;48.72;30.08;;;15.90;77.40;;;;;;5009935;28;20053;-91
2021/09/05 05:27:20;;;;;;;45.50;28.30;;;15.90;77.50;;;;;;5019163;28;20053;-91
2021/09/05 05:29:47;;;;;;;47.15;29.83;;;15.90;77.50;;;;;;5035609;28;20084;-92
2021/09/05 05:32:14;;;;;;;47.65;29.25;;;15.90;77.60;;;;;;5014548;28;20523;-92
2021/09/05 05:34:41;;;;;;;45.13;29.38;;;15.90;77.60;;;;;;5008957;28;20478;-91
2021/09/05 05:37:08;;;;;;;40.97;27.63;;;15.90;77.70;;;;;;5016688;28;20053;-91
2021/09/05 05:39:35;;;;;;;40.20;27.38;;;15.90;77.70;;;;;;5014370;28;20493;-91
2021/09/05 05:42:02;;;;;;;39.63;24.77;;;15.90;77.60;;;;;;5035458;28;20062;-92
2021/09/05 05:44:29;;;;;;;44.03;26.70;;;15.90;77.60;;;;;;5035126;28;20058;-91
2021/09/05 05:46:56;;;;;;;42.75;27.20;;;15.90;77.60;;;;;;5015095;28;20053;-91
2021/09/05 05:49:22;;;;;;;51.22;28.00;;;15.90;77.70;;;;;;5016183;28;20099;-92
2021/09/05 05:51:49;;;;;;;46.75;30.85;;;15.90;77.70;;;;;;5017097;28;20490;-90
2021/09/05 05:54:17;;;;;;;47.83;30.33;;;15.80;77.80;;;;;;5032302;28;20069;-92
2021/09/05 05:56:44;;;;;;;55.55;33.35;;;15.90;78.00;;;;;;5015584;28;20057;-91
2021/09/05 05:59:11;;;;;;;45.55;31.48;;;15.90;78.00;;;;;;5015917;28;20053;-91
2021/09/05 06:01:41;;;;;;;49.25;31.98;;;15.80;78.10;;;;;;5013648;28;20052;-92
2021/09/05 06:04:09;;;;;;;53.35;34.30;;;15.80;78.20;;;;;;5017414;28;20095;-91
2021/09/05 06:06:39;;;;;;;61.17;37.00;;;15.80;78.40;;;;;;5017524;28;20041;-92
2021/09/05 06:09:06;;;;;;;56.22;32.55;;;15.80;78.50;;;;;;5017289;28;20400;-90
2021/09/05 06:11:34;;;;;;;64.82;39.22;;;15.80;78.60;;;;;;5017675;28;20054;-93
2021/09/05 06:14:01;;;;;;;56.92;34.03;;;15.80;78.70;;;;;;5014735;28;20057;-93
2021/09/05 06:16:28;;;;;;;64.38;38.40;;;15.90;78.80;;;;;;5017255;28;20044;-92
2021/09/05 06:18:56;;;;;;;62.40;37.45;;;15.90;78.90;;;;;;5035097;28;20527;-92
2021/09/05 06:21:23;;;;;;;50.05;32.28;;;15.90;78.90;;;;;;5033236;28;20103;-93
2021/09/05 06:23:50;;;;;;;61.90;35.50;;;15.90;79.00;;;;;;5035162;28;20055;-93
2021/09/05 06:26:17;;;;;;;59.58;32.95;;;15.90;79.10;;;;;;5017655;28;20495;-93
2021/09/05 06:28:44;;;;;;;64.70;38.28;;;15.90;79.20;;;;;;5017376;28;20045;-92
2021/09/05 06:31:10;;;;;;;73.38;39.38;;;15.90;79.30;;;;;;5017654;28;20061;-93
2021/09/05 06:33:38;;;;;;;76.13;42.60;;;16.00;79.40;;;;;;5016588;28;20095;-94
2021/09/05 06:36:05;;;;;;;55.50;34.03;;;16.10;79.60;;;;;;5015125;28;20107;-93
2021/09/05 06:38:32;;;;;;;63.35;38.80;;;16.10;79.70;;;;;;5015880;28;20500;-93
2021/09/05 06:40:59;;;;;;;67.10;40.03;;;16.10;79.80;;;;;;5001585;28;20050;-92
2021/09/05 06:43:25;;;;;;;69.30;40.47;;;16.10;79.90;;;;;;5004140;28;20164;-93
2021/09/05 06:45:52;;;;;;;86.20;49.17;;;16.20;80.10;;;;;;5014044;28;20053;-93
2021/09/05 06:48:38;;;;;;;73.47;40.85;;;16.20;80.30;;;;;;5012735;28;20042;-91
2021/09/05 06:51:06;;;;;;;93.45;50.17;;;16.30;80.60;;;;;;5013693;28;20050;-93
2021/09/05 06:53:33;;;;;;;92.35;49.05;;;16.30;80.70;;;;;;5012894;28;20128;-93
2021/09/05 06:56:00;;;;;;;100.13;52.10;;;16.40;80.80;;;;;;5013647;28;20054;-92
2021/09/05 06:58:27;;;;;;;92.82;47.67;;;16.40;81.00;;;;;;5013982;28;20046;-93
2021/09/05 07:00:54;;;;;;;114.65;54.47;;;16.50;81.10;;;;;;5013250;28;20046;-92
2021/09/05 07:03:21;;;;;;;116.40;57.05;;;16.50;81.40;;;;;;5008689;28;20062;-92
2021/09/05 07:05:49;;;;;;;117.75;56.83;;;16.60;81.60;;;;;;4993960;28;20493;-92
2021/09/05 07:08:16;;;;;;;114.95;56.55;;;16.60;81.70;;;;;;4995489;28;20057;-93
2021/09/05 07:10:43;;;;;;;113.55;56.33;;;16.60;81.90;;;;;;4993788;28;20053;-91
2021/09/05 07:13:10;;;;;;;108.78;53.75;;;16.70;82.00;;;;;;4993858;28;20058;-90
2021/09/05 07:15:37;;;;;;;121.95;59.97;;;16.70;82.00;;;;;;4993416;28;20062;-91
2021/09/05 07:18:04;;;;;;;125.72;60.40;;;16.80;82.10;;;;;;4993640;28;20050;-92
2021/09/05 07:20:31;;;;;;;136.60;63.80;;;16.90;82.20;;;;;;4993629;28;20129;-90
2021/09/05 07:23:01;;;;;;;132.02;61.88;;;16.90;82.30;;;;;;5003246;28;20064;-94
2021/09/05 07:25:30;;;;;;;138.88;61.80;;;17.00;82.40;;;;;;5013214;28;20062;-92
2021/09/05 07:27:58;;;;;;;152.63;65.47;;;17.00;82.50;;;;;;5012674;28;20069;-92
2021/09/05 07:30:27;;;;;;;145.48;64.45;;;17.10;82.60;;;;;;5011645;28;20076;-91
2021/09/05 07:32:55;;;;;;;134.23;60.90;;;17.20;82.70;;;;;;5012774;28;20050;-90
2021/09/05 07:35:26;;;;;;;141.15;64.22;;;17.20;82.90;;;;;;5012213;28;20099;-92
2021/09/05 07:37:53;;;;;;;142.15;63.25;;;17.30;83.10;;;;;;5008556;28;20061;-93
2021/09/05 07:40:21;;;;;;;125.97;60.42;;;17.40;83.00;;;;;;5012306;28;20639;-90
2021/09/05 07:42:48;;;;;;;144.68;64.03;;;17.40;83.00;;;;;;5013052;28;20057;-90
2021/09/05 07:45:20;;;;;;;145.80;64.30;;;17.50;83.00;;;;;;5029794;28;20496;-92
2021/09/05 07:48:00;;;;;;;150.18;66.75;;;17.60;82.90;;;;;;5013501;28;20084;-91
2021/09/05 07:50:30;;;;;;;132.55;59.72;;;17.70;82.90;;;;;;5009054;28;20050;-91
2021/09/05 07:52:57;;;;;;;141.32;63.97;;;17.80;82.80;;;;;;5013311;28;20060;-91
2021/09/05 07:55:24;;;;;;;146.48;66.88;;;17.90;82.80;;;;;;5015639;28;20111;-90
2021/09/05 07:57:52;;;;;;;143.40;65.20;;;17.90;82.70;;;;;;5016577;28;20056;-92
2021/09/05 08:00:19;;;;;;;130.02;63.67;;;17.90;82.60;;;;;;5016142;28;20504;-92
2021/09/05 08:02:47;;;;;;;123.68;59.70;;;18.00;82.50;;;;;;5015856;28;20053;-91
2021/09/05 08:05:15;;;;;;;115.82;54.25;;;18.10;82.30;;;;;;4996249;28;20058;-91
2021/09/05 08:07:42;;;;;;;102.53;49.30;;;18.10;82.20;;;;;;5002870;28;20389;-91
2021/09/05 08:10:09;;;;;;;143.10;63.45;;;18.20;82.20;;;;;;5004778;28;20054;-92
2021/09/05 08:12:37;;;;;;;125.90;60.85;;;18.20;82.10;;;;;;5012818;28;20459;-93
2021/09/05 08:15:05;;;;;;;131.90;63.10;;;18.30;82.10;;;;;;4996361;28;20056;-93
2021/09/05 08:17:32;;;;;;;99.13;48.72;;;18.40;82.10;;;;;;4996480;28;20062;-91
2021/09/05 08:19:59;;;;;;;140.90;65.00;;;18.40;82.10;;;;;;4995814;28;20050;-91
2021/09/05 08:22:26;;;;;;;116.97;57.92;;;18.40;82.00;;;;;;4995685;28;20488;-90
2021/09/05 08:24:53;;;;;;;137.07;63.63;;;18.50;82.00;;;;;;4995926;28;20555;-91
2021/09/05 08:27:20;;;;;;;124.22;59.97;;;18.50;81.90;;;;;;5000229;28;20046;-92
2021/09/05 08:29:47;;;;;;;138.43;62.53;;;18.60;82.00;;;;;;5015374;28;20061;-91
2021/09/05 08:32:14;;;;;;;123.30;61.72;;;18.70;82.00;;;;;;5015523;28;20103;-91
2021/09/05 08:34:41;;;;;;;128.18;62.22;;;18.80;81.90;;;;;;5007149;28;20056;-93
2021/09/05 08:37:08;;;;;;;121.10;59.38;;;18.90;81.80;;;;;;5010469;28;20041;-91
2021/09/05 08:39:35;;;;;;;131.80;62.97;;;18.90;81.40;;;;;;5015258;28;20435;-91
2021/09/05 08:42:02;;;;;;;126.55;62.17;;;19.00;81.10;;;;;;5035062;28;20049;-93
2021/09/05 08:44:29;;;;;;;110.18;57.78;;;19.20;81.00;;;;;;4999259;28;20547;-92
2021/09/05 08:46:59;;;;;;;99.43;52.45;;;19.30;80.90;;;;;;4983472;28;20447;-92
2021/09/05 08:49:27;;;;;;;99.70;53.47;;;19.40;80.80;;;;;;4999553;28;20137;-92
2021/09/05 08:51:56;;;;;;;101.38;52.30;;;19.40;80.70;;;;;;4999567;28;20053;-92
2021/09/05 08:54:23;;;;;;;112.90;55.42;;;19.60;80.60;;;;;;5004011;28;20049;-91
2021/09/05 08:56:53;;;;;;;104.75;54.40;;;19.70;80.40;;;;;;5019479;28;20518;-92
2021/09/05 08:59:20;;;;;;;106.93;55.47;;;19.80;80.20;;;;;;4998957;28;20065;-92
2021/09/05 09:02:01;;;;;;;92.22;50.58;;;19.90;80.20;;;;;;4999511;28;20057;-93
2021/09/05 09:04:42;;;;;;;83.88;49.25;;;20.00;80.00;;;;;;5001574;28;20107;-94
2021/09/05 09:07:14;;;;;;;91.57;48.58;;;20.10;79.70;;;;;;5003038;28;20061;-94
2021/09/05 09:09:58;;;;;;;81.82;45.85;;;20.30;79.20;;;;;;5008234;28;20499;-94
2021/09/05 09:12:37;;;;;;;94.43;51.25;;;20.40;78.90;;;;;;5021940;28;20060;-93
2021/09/05 09:15:17;;;;;;;79.50;48.03;;;20.60;78.50;;;;;;5019282;28;20403;-94
2021/09/05 09:17:59;;;;;;;81.95;48.28;;;20.60;77.90;;;;;;5022700;28;20054;-94
2021/09/05 09:20:34;;;;;;;81.90;49.05;;;20.80;77.60;;;;;;5002924;28;20053;-93
2021/09/05 09:23:07;;;;;;;79.68;47.22;;;20.90;77.30;;;;;;5019085;28;20057;-92
2021/09/05 09:25:34;;;;;;;85.70;49.53;;;20.90;77.10;;;;;;5018082;28;20118;-89
2021/09/05 09:28:02;;;;;;;79.22;48.72;;;21.10;76.90;;;;;;5027540;28;20056;-90
2021/09/05 09:30:35;;;;;;;79.43;46.53;;;21.10;76.60;;;;;;5045803;28;20045;-90
2021/09/05 09:33:02;;;;;;;75.35;46.17;;;21.20;76.20;;;;;;5018304;28;20049;-89
2021/09/05 09:35:52;;;;;;;68.30;42.50;;;21.30;76.00;;;;;;4998427;28;20049;-90
2021/09/05 09:38:21;;;;;;;72.20;43.17;;;21.40;75.80;;;;;;4997953;28;20058;-89
2021/09/05 09:40:48;;;;;;;73.80;41.95;;;21.50;75.60;;;;;;5005248;28;20049;-91
2021/09/05 09:43:21;;;;;;;66.72;43.08;;;21.70;75.40;;;;;;5017282;28;20451;-93
2021/09/05 09:45:50;;;;;;;70.75;43.88;;;21.90;75.30;;;;;;5034792;28;20050;-93
2021/09/05 09:48:27;;;;;;;65.50;40.95;;;22.00;74.80;;;;;;4998440;28;20500;-89
2021/09/05 09:51:00;;;;;;;59.70;38.03;;;22.10;74.10;;;;;;4998272;28;20111;-90
2021/09/05 09:53:28;;;;;;;67.20;40.80;;;22.20;73.60;;;;;;4997840;28;20054;-91
2021/09/05 09:55:57;;;;;;;61.10;38.92;;;22.30;73.50;;;;;;5031087;28;20099;-91
2021/09/05 09:58:24;;;;;;;55.20;35.95;;;22.40;73.10;;;;;;5014949;28;20068;-91
2021/09/05 10:00:54;;;;;;;58.15;37.97;;;22.50;72.70;;;;;;5034221;28;20053;-90
2021/09/05 10:03:22;;;;;;;63.83;36.38;;;22.50;72.50;;;;;;5012368;28;20129;-91
2021/09/05 10:05:51;;;;;;;49.90;33.30;;;22.70;72.30;;;;;;4998237;28;20103;-91
2021/09/05 10:08:19;;;;;;;59.45;35.22;;;22.80;71.80;;;;;;5017213;28;20111;-94
2021/09/05 10:10:48;;;;;;;58.20;37.83;;;22.90;71.40;;;;;;5001907;28;20058;-92
2021/09/05 10:13:14;;;;;;;50.17;32.33;;;22.90;71.10;;;;;;5001105;28;20053;-91
2021/09/05 10:15:43;;;;;;;55.88;33.22;;;23.00;71.00;;;;;;5016800;28;20049;-92
2021/09/05 10:18:11;;;;;;;45.92;32.13;;;23.10;70.50;;;;;;5034866;28;20565;-93
2021/09/05 10:20:38;;;;;;;54.25;35.22;;;23.20;70.00;;;;;;5017072;28;20061;-91
2021/09/05 10:23:05;;;;;;;45.47;30.70;;;23.30;69.60;;;;;;5033188;28;20045;-92
2021/09/05 10:25:32;;;;;;;44.80;30.67;;;23.30;69.20;;;;;;5002239;28;20053;-92
2021/09/05 10:28:00;;;;;;;45.15;30.90;;;23.40;68.90;;;;;;5020982;28;20041;-91
2021/09/05 10:30:27;;;;;;;47.53;32.55;;;23.40;68.80;;;;;;5012786;28;20050;-93
2021/09/05 10:32:59;;;;;;;45.33;32.13;;;23.50;68.50;;;;;;5034476;28;20076;-95
2021/09/05 10:35:29;;;;;;;49.08;32.25;;;23.50;68.30;;;;;;5017108;28;20061;-92
2021/09/05 10:38:08;;;;;;;43.20;29.08;;;23.60;68.20;;;;;;4999697;28;20104;-92
2021/09/05 10:40:59;;;;;;;45.15;30.10;;;23.60;68.00;;;;;;5009888;28;20091;-92
2021/09/05 10:44:07;;;;;;;42.90;30.48;;;23.70;67.90;;;;;;5012048;28;20049;-92
2021/09/05 10:46:55;;;;;;;38.90;28.23;;;23.80;67.80;;;;;;5009062;28;20111;-91
2021/09/05 10:49:41;;;;;;;43.78;30.23;;;23.80;68.00;;;;;;5017610;28;20057;-93
2021/09/05 10:52:08;;;;;;;41.85;27.10;;;23.80;68.40;;;;;;5039353;28;20111;-90
2021/09/05 10:54:48;;;;;;;40.55;28.10;;;23.80;68.80;;;;;;5029454;28;20523;-93
2021/09/05 10:57:40;;;;;;;36.15;26.02;;;23.90;68.90;;;;;;5015619;28;20061;-92
2021/09/05 11:00:08;;;;;;;35.97;24.60;;;24.00;68.70;;;;;;5014514;28;20061;-90
2021/09/05 11:03:08;;;;;;;32.90;24.40;;;24.10;68.10;;;;;;5016107;28;20045;-91
2021/09/05 11:05:35;;;;;;;27.15;18.95;;;24.30;67.60;;;;;;5012983;28;20116;-91
2021/09/05 11:08:22;;;;;;;27.25;18.88;;;24.50;66.80;;;;;;5017167;28;20124;-93
2021/09/05 11:10:50;;;;;;;34.20;20.15;;;24.70;65.90;;;;;;5011970;28;20045;-92
2021/09/05 11:13:46;;;;;;;26.55;17.92;;;24.90;65.50;;;;;;5003244;28;20472;-89
2021/09/05 11:16:18;;;;;;;33.38;19.65;;;25.20;64.80;;;;;;5013100;28;20092;-93
2021/09/05 11:18:45;;;;;;;24.98;16.85;;;25.40;63.90;;;;;;5000465;28;20057;-95
2021/09/05 11:21:25;;;;;;;25.52;15.05;;;25.70;63.00;;;;;;4997786;28;20437;-91
2021/09/05 11:23:55;;;;;;;22.02;15.25;;;25.90;62.00;;;;;;5032719;28;20049;-92
2021/09/05 11:26:21;;;;;;;21.15;15.73;;;26.00;61.20;;;;;;5013317;28;20046;-91
2021/09/05 11:28:50;;;;;;;24.83;15.88;;;26.20;60.70;;;;;;5007544;28;20053;-90
2021/09/05 11:31:17;;;;;;;20.02;14.93;;;26.30;60.50;;;;;;5024915;28;20054;-94
2021/09/05 11:33:44;;;;;;;21.40;15.15;;;26.40;60.00;;;;;;5009218;28;20100;-93
2021/09/05 11:36:11;;;;;;;20.45;15.43;;;26.60;59.50;;;;;;5007495;28;20061;-91
2021/09/05 11:38:38;;;;;;;20.08;14.70;;;26.70;58.90;;;;;;5009704;28;20049;-93
2021/09/05 11:41:06;;;;;;;18.80;14.73;;;26.90;58.50;;;;;;5015784;28;20054;-93
2021/09/05 11:43:38;;;;;;;18.60;14.05;;;26.90;58.20;;;;;;5014262;28;20140;-89
2021/09/05 11:46:17;;;;;;;19.83;14.57;;;27.10;57.80;;;;;;5008477;28;20117;-89
2021/09/05 11:48:59;;;;;;;18.63;13.95;;;27.20;57.60;;;;;;5002169;28;20068;-89
2021/09/05 11:51:26;;;;;;;18.48;13.18;;;27.40;57.60;;;;;;4995516;28;20397;-91
2021/09/05 11:54:03;;;;;;;17.20;12.80;;;27.50;57.50;;;;;;5021499;28;20048;-90
2021/09/05 11:56:31;;;;;;;17.67;13.27;;;27.60;56.90;;;;;;5016825;28;20064;-89
2021/09/05 11:59:09;;;;;;;18.23;12.68;;;27.70;56.80;;;;;;5002371;28;20500;-91
2021/09/05 12:01:39;;;;;;;17.10;12.43;;;27.90;56.50;;;;;;5009975;28;20057;-91
2021/09/05 12:04:07;;;;;;;17.75;12.05;;;28.00;56.20;;;;;;5028191;28;20451;-93
2021/09/05 12:06:35;;;;;;;16.38;12.07;;;28.20;55.80;;;;;;5033379;28;20561;-93
2021/09/05 12:09:02;;;;;;;13.45;10.43;;;28.30;55.30;;;;;;5032532;28;20045;-93
2021/09/05 12:11:28;;;;;;;14.35;10.75;;;28.30;54.40;;;;;;5031003;28;20463;-92
2021/09/05 12:13:55;;;;;;;15.25;10.20;;;28.40;54.40;;;;;;5019820;28;20049;-90
2021/09/05 12:16:28;;;;;;;14.38;9.45;;;28.50;54.50;;;;;;5011026;28;20052;-94
2021/09/05 12:19:08;;;;;;;10.77;9.00;;;28.60;53.90;;;;;;5020706;28;20045;-94
2021/09/05 12:21:39;;;;;;;12.65;9.02;;;28.60;53.50;;;;;;5016594;28;20053;-94
2021/09/05 12:24:18;;;;;;;7.93;6.57;;;28.70;53.40;;;;;;5018833;28;20049;-91
2021/09/05 12:26:45;;;;;;;10.57;7.95;;;28.80;53.30;;;;;;4999420;28;20057;-91
2021/09/05 12:29:13;;;;;;;11.60;8.20;;;28.90;53.30;;;;;;5015031;28;20050;-90
2021/09/05 12:31:45;;;;;;;11.73;8.30;;;29.00;52.80;;;;;;5001685;28;20469;-92
2021/09/05 12:34:42;;;;;;;10.90;8.15;;;29.20;52.70;;;;;;5023719;28;20053;-91